Terminal Aerodrome Forecast
Issued by NWS Grand Forks, ND

Home | Current Version | Previous Version | Text Only | Print | Product List | Glossary Off
Versions: 1 2 3 4 5 6 7 8 9 10 11 12 13 14 15 16 17 18 19 20 21

933
FTUS43 KFGF 222248 AAC
TAFGFK
TAF AMD
KGFK 222248Z 2223/2318 02012KT P6SM VCSH OVC050
     FM230300 33013KT P6SM OVC035
     FM231000 34010KT P6SM OVC020=

USA.gov is the U.S. government's official web portal to all federal, state and local government web resources and services.